createdAt,value
2023-04-19T00:00:50.570Z,99866.47
2023-04-19T00:01:57.609Z,99868.98
2023-04-19T00:03:02.942Z,99869.98
2023-04-19T00:04:12.021Z,99861.00
2023-04-19T00:05:15.741Z,99865.63
2023-04-19T00:06:18.027Z,99862.95
2023-04-19T00:07:20.111Z,99867.32
2023-04-19T00:08:22.171Z,99862.95
2023-04-19T00:09:25.680Z,99870.09
2023-04-19T00:10:28.321Z,99859.59
2023-04-19T00:11:30.620Z,99867.58
2023-04-19T00:12:33.488Z,99867.58
2023-04-19T00:13:35.718Z,99861.40
2023-04-19T00:14:37.817Z,99857.03
2023-04-19T00:15:39.995Z,99866.02
2023-04-19T00:16:42.232Z,99865.02
2023-04-19T00:17:44.433Z,99867.69
2023-04-19T00:18:47.250Z,99865.02
2023-04-19T00:19:49.549Z,99864.17
2023-04-19T00:20:51.845Z,99863.20
2023-04-19T00:21:54.040Z,99866.83
2023-04-19T00:22:56.235Z,99860.80
2023-04-19T00:23:58.815Z,99867.83
2023-04-19T00:25:01.692Z,99864.31
2023-04-19T00:26:04.036Z,99856.47
2023-04-19T00:27:06.106Z,99859.95
2023-04-19T00:28:09.457Z,99858.98
2023-04-19T00:29:12.185Z,99859.13
2023-04-19T00:30:16.861Z,99855.61
2023-04-19T00:31:19.789Z,99854.05
2023-04-19T00:32:22.517Z,99852.21
2023-04-19T00:33:25.937Z,99855.87
2023-04-19T00:34:27.990Z,99861.19
2023-04-19T00:35:31.977Z,99853.45
2023-04-19T00:36:35.172Z,99856.12
2023-04-19T00:37:37.728Z,99854.31
2023-04-19T00:38:40.007Z,99845.47
2023-04-19T00:39:45.682Z,99857.93
2023-04-19T00:40:47.995Z,99850.09
2023-04-19T00:41:50.865Z,99848.37
2023-04-19T00:42:55.113Z,99847.53
2023-04-19T00:43:58.582Z,99851.19
2023-04-19T00:45:03.299Z,99838.83
2023-04-19T00:46:06.156Z,99851.30
2023-04-19T00:47:12.874Z,99842.45
2023-04-19T00:48:17.041Z,99842.59
2023-04-19T00:49:23.964Z,99840.90
2023-04-19T00:50:26.485Z,99847.92
2023-04-19T00:51:29.557Z,99840.79
2023-04-19T00:52:34.414Z,99845.27
2023-04-19T00:53:38.032Z,99846.97
2023-04-19T00:54:42.124Z,99839.94
2023-04-19T00:55:45.760Z,99843.45
2023-04-19T00:56:49.201Z,99846.97
2023-04-19T00:57:53.030Z,99837.27
2023-04-19T00:58:57.155Z,99837.27
2023-04-19T01:00:00.680Z,99833.77
2023-04-19T01:01:05.474Z,99829.39
2023-04-19T01:02:09.274Z,99830.25
2023-04-19T01:03:11.798Z,99827.59
2023-04-19T01:04:15.946Z,99829.39
2023-04-19T01:05:24.108Z,99825.77
2023-04-19T01:06:30.071Z,99831.09
2023-04-19T01:07:33.553Z,99818.04
2023-04-19T01:08:35.926Z,99826.88
2023-04-19T01:09:42.933Z,99821.70
2023-04-19T01:10:45.737Z,99830.50
2023-04-19T01:11:47.945Z,99819.99
2023-04-19T01:12:52.010Z,99819.84
2023-04-19T01:13:59.376Z,99818.18
2023-04-19T01:15:02.122Z,99815.52
2023-04-19T01:16:08.804Z,99819.14
2023-04-19T01:17:14.299Z,99820.24
2023-04-19T01:18:16.995Z,99816.73
2023-04-19T01:19:19.250Z,99815.77
2023-04-19T01:20:24.477Z,99812.40
2023-04-19T01:21:26.581Z,99818.55
2023-04-19T01:22:28.951Z,99820.49
2023-04-19T01:23:31.229Z,99816.98
2023-04-19T01:24:33.783Z,99814.32
2023-04-19T01:25:36.392Z,99814.32
2023-04-19T01:26:39.722Z,99817.83
2023-04-19T01:28:01.664Z,99819.64
2023-04-19T01:29:04.387Z,99816.98
2023-04-19T01:30:08.747Z,99811.66
2023-04-19T01:31:11.016Z,99810.80
2023-04-19T01:32:13.041Z,99819.64
2023-04-19T01:33:15.662Z,99822.45
2023-04-19T01:34:18.585Z,99811.91
2023-04-19T01:35:20.749Z,99814.57
2023-04-19T01:36:22.964Z,99803.92
2023-04-19T01:37:25.685Z,99807.58
2023-04-19T01:38:28.432Z,99810.24
2023-04-19T01:39:31.172Z,99805.88
2023-04-19T01:40:33.839Z,99810.35
2023-04-19T01:41:35.787Z,99811.20
2023-04-19T01:42:37.849Z,99818.33
2023-04-19T01:43:40.296Z,99814.86
2023-04-19T01:44:44.095Z,99809.64
2023-04-19T01:45:46.161Z,99807.83
2023-04-19T01:46:48.967Z,99810.60
2023-04-19T01:47:52.089Z,99810.60
2023-04-19T01:48:54.254Z,99807.94
2023-04-19T01:49:56.534Z,99802.61
2023-04-19T01:50:58.678Z,99810.60
2023-04-19T01:52:01.399Z,99801.80
2023-04-19T01:53:03.559Z,99807.23
2023-04-19T01:54:05.729Z,99800.23
2023-04-19T01:55:08.469Z,99801.20
2023-04-19T01:56:11.822Z,99801.20
2023-04-19T01:57:13.980Z,99803.97
2023-04-19T01:58:16.922Z,99801.30
2023-04-19T01:59:20.903Z,99801.30
2023-04-19T02:00:23.232Z,99797.83
2023-04-19T02:01:25.444Z,99803.97
2023-04-19T02:02:27.836Z,99803.15
2023-04-19T02:03:31.489Z,99802.30
2023-04-19T02:04:34.457Z,99798.78
2023-04-19T02:05:39.077Z,99797.08
2023-04-19T02:06:41.235Z,99795.41
2023-04-19T02:07:43.840Z,99791.91
2023-04-19T02:08:46.311Z,99796.38
2023-04-19T02:09:48.778Z,99800.73
2023-04-19T02:10:51.152Z,99792.75
2023-04-19T02:11:53.292Z,99798.92
2023-04-19T02:12:56.596Z,99797.08
2023-04-19T02:13:59.760Z,99793.61
2023-04-19T02:15:05.279Z,99794.56
2023-04-19T02:16:11.070Z,99792.86
2023-04-19T02:17:13.234Z,99785.73
2023-04-19T02:18:15.389Z,99790.09
2023-04-19T02:19:17.966Z,99785.73
2023-04-19T02:20:20.283Z,99793.71
2023-04-19T02:21:24.183Z,99790.20
2023-04-19T02:22:26.554Z,99795.52
2023-04-19T02:23:28.712Z,99790.20
2023-04-19T02:24:30.998Z,99786.69
2023-04-19T02:25:33.852Z,99791.05
2023-04-19T02:26:39.000Z,99786.69
2023-04-19T02:27:41.386Z,99792.02
2023-04-19T02:28:44.752Z,99791.19
2023-04-19T02:29:47.782Z,99790.20
2023-04-19T02:30:50.250Z,99790.20
2023-04-19T02:31:52.467Z,99795.66
2023-04-19T02:32:55.020Z,99798.19
2023-04-19T02:33:58.400Z,99791.91
2023-04-19T02:35:01.832Z,99788.39
2023-04-19T02:36:06.056Z,99790.20
2023-04-19T02:37:08.378Z,99790.20
2023-04-19T02:38:10.541Z,99786.69
2023-04-19T02:39:12.639Z,99792.02
2023-04-19T02:40:14.928Z,99785.98
2023-04-19T02:41:17.254Z,99787.79
2023-04-19T02:42:19.330Z,99786.97
2023-04-19T02:43:21.435Z,99795.77
2023-04-19T02:44:23.606Z,99792.30
2023-04-19T02:45:25.863Z,99789.63
2023-04-19T02:46:30.077Z,99790.59
2023-04-19T02:47:32.993Z,99794.21
2023-04-19T02:48:35.304Z,99794.21
2023-04-19T02:49:37.906Z,99794.11
2023-04-19T02:50:40.497Z,99796.05
2023-04-19T02:51:43.898Z,99800.38
2023-04-19T02:52:46.902Z,99791.55
2023-04-19T02:53:49.471Z,99797.86
2023-04-19T02:54:51.745Z,99795.31
2023-04-19T02:55:53.918Z,99797.02
2023-04-19T02:56:56.666Z,99796.16
2023-04-19T02:57:59.125Z,99794.35
2023-04-19T02:59:02.782Z,99796.16
2023-04-19T03:00:06.758Z,99797.97
2023-04-19T03:01:09.702Z,99793.64
2023-04-19T03:02:11.961Z,99799.78
2023-04-19T03:03:14.387Z,99794.46
2023-04-19T03:04:16.873Z,99796.16
2023-04-19T03:05:19.649Z,99793.50
2023-04-19T03:06:22.492Z,99797.86
2023-04-19T03:07:24.686Z,99797.02
2023-04-19T03:08:27.153Z,99801.48
2023-04-19T03:09:29.300Z,99799.67
2023-04-19T03:10:33.727Z,99796.16
2023-04-19T03:11:36.289Z,99800.63
2023-04-19T03:12:38.581Z,99798.11
2023-04-19T03:13:40.819Z,99799.92
2023-04-19T03:14:43.375Z,99798.11
2023-04-19T03:15:46.666Z,99805.24
2023-04-19T03:16:48.971Z,99799.07
2023-04-19T03:17:51.548Z,99796.41
2023-04-19T03:18:54.635Z,99800.88
2023-04-19T03:19:58.675Z,99791.23
2023-04-19T03:21:02.343Z,99794.74
2023-04-19T03:22:07.477Z,99792.90
2023-04-19T03:23:10.015Z,99792.90
2023-04-19T03:24:12.887Z,99792.08
2023-04-19T03:25:17.549Z,99799.07
2023-04-19T03:26:21.834Z,99797.27
2023-04-19T03:27:27.954Z,99790.23
2023-04-19T03:28:32.312Z,99792.80
2023-04-19T03:29:39.284Z,99783.96
2023-04-19T03:30:43.278Z,99788.43
2023-04-19T03:31:45.573Z,99782.26
2023-04-19T03:32:48.405Z,99786.48
2023-04-19T03:33:50.917Z,99785.66
2023-04-19T03:34:54.137Z,99779.34
2023-04-19T03:35:57.201Z,99785.52
2023-04-19T03:37:00.350Z,99783.71
2023-04-19T03:38:02.767Z,99789.88
2023-04-19T03:39:04.910Z,99777.54
2023-04-19T03:40:09.349Z,99786.23
2023-04-19T03:41:24.910Z,99780.91
2023-04-19T03:42:35.488Z,99783.57
2023-04-19T03:43:48.670Z,99788.78
2023-04-19T03:44:51.812Z,99777.29
2023-04-19T03:45:54.402Z,99780.09
2023-04-19T03:46:57.390Z,99777.43
2023-04-19T03:48:02.919Z,99773.92
2023-04-19T03:49:08.158Z,99771.83
2023-04-19T03:50:13.068Z,99776.33
2023-04-19T03:51:16.720Z,99777.29
2023-04-19T03:52:19.558Z,99779.95
2023-04-19T03:53:24.614Z,99778.14
2023-04-19T03:54:26.685Z,99782.47
2023-04-19T03:55:29.064Z,99780.80
2023-04-19T03:56:31.702Z,99782.61
2023-04-19T03:57:34.522Z,99779.81
2023-04-19T03:58:39.395Z,99776.33
2023-04-19T03:59:43.617Z,99778.00
2023-04-19T04:00:46.479Z,99772.56
2023-04-19T04:01:48.947Z,99770.72
2023-04-19T04:02:51.388Z,99773.39
2023-04-19T04:03:57.151Z,99772.42
2023-04-19T04:05:02.902Z,99777.75
2023-04-19T04:06:06.361Z,99782.11
2023-04-19T04:07:08.985Z,99773.28
2023-04-19T04:08:11.123Z,99772.31
2023-04-19T04:09:13.795Z,99779.45
2023-04-19T04:10:16.914Z,99779.31
2023-04-19T04:11:19.082Z,99781.01
2023-04-19T04:12:23.224Z,99784.52
2023-04-19T04:13:27.319Z,99784.52
2023-04-19T04:14:34.578Z,99780.87
2023-04-19T04:15:37.219Z,99780.76
2023-04-19T04:16:40.070Z,99783.27
2023-04-19T04:17:43.731Z,99784.12
2023-04-19T04:18:48.692Z,99783.27
2023-04-19T04:19:51.411Z,99780.36
2023-04-19T04:20:54.247Z,99788.23
2023-04-19T04:21:57.365Z,99773.09
2023-04-19T04:23:01.390Z,99771.16
2023-04-19T04:24:04.874Z,99775.39
2023-04-19T04:25:12.740Z,99780.56
2023-04-19T04:26:15.389Z,99783.94
2023-04-19T04:27:22.501Z,99777.66
2023-04-19T04:28:30.344Z,99787.20
2023-04-19T04:29:33.092Z,99780.91
2023-04-19T04:30:37.088Z,99777.14
2023-04-19T04:31:40.229Z,99777.00
2023-04-19T04:32:43.419Z,99779.55
2023-04-19T04:33:46.123Z,99774.08
2023-04-19T04:34:49.408Z,99768.50
2023-04-19T04:35:56.621Z,99767.54
2023-04-19T04:36:59.653Z,99770.06
2023-04-19T04:38:08.377Z,99767.28
2023-04-19T04:39:06.396Z,99779.49
2023-04-19T04:40:10.781Z,99778.50
2023-04-19T04:41:12.964Z,99773.06
2023-04-19T04:42:15.172Z,99773.77
2023-04-19T04:43:17.825Z,99772.52
2023-04-19T04:44:20.537Z,99769.73
2023-04-19T04:45:23.202Z,99769.59
2023-04-19T04:46:26.506Z,99767.67
2023-04-19T04:47:34.289Z,99769.22
2023-04-19T04:48:38.348Z,99762.78
2023-04-19T04:49:41.187Z,99774.84
2023-04-19T04:50:43.575Z,99780.77
2023-04-19T04:51:48.030Z,99772.52
2023-04-19T04:52:52.045Z,99768.89
2023-04-19T04:53:56.466Z,99780.25
2023-04-19T04:54:58.861Z,99776.48
2023-04-19T04:56:03.424Z,99777.18
2023-04-19T04:57:06.545Z,99779.58
2023-04-19T04:58:08.723Z,99776.77
2023-04-19T04:59:15.675Z,99774.70
2023-04-19T05:00:20.243Z,99772.63
2023-04-19T05:01:24.364Z,99774.20
2023-04-19T05:02:27.400Z,99773.23
2023-04-19T05:03:29.740Z,99776.59
2023-04-19T05:04:34.491Z,99778.03
2023-04-19T05:05:37.160Z,99778.41
2023-04-19T05:06:39.877Z,99780.13
2023-04-19T05:07:43.683Z,99780.97
2023-04-19T05:08:47.556Z,99779.70
2023-04-19T05:09:54.810Z,99779.87
2023-04-19T05:10:59.566Z,99779.48
2023-04-19T05:12:04.093Z,99778.82
2023-04-19T05:13:07.116Z,99782.33
2023-04-19T05:14:09.526Z,99784.33
2023-04-19T05:15:12.526Z,99780.11
2023-04-19T05:16:16.487Z,99781.22
2023-04-19T05:17:20.320Z,99773.80
2023-04-19T05:18:23.375Z,99775.87
2023-04-19T05:19:25.918Z,99773.05
2023-04-19T05:20:29.920Z,99771.10
2023-04-19T05:21:37.266Z,99769.41
2023-04-19T05:23:01.563Z,99773.17
2023-04-19T05:24:06.254Z,99774.98
2023-04-19T05:25:10.515Z,99780.00
2023-04-19T05:26:14.720Z,99778.90
2023-04-19T05:27:17.398Z,99774.48
2023-04-19T05:28:20.214Z,99777.71
2023-04-19T05:29:27.335Z,99775.72
2023-04-19T05:30:30.778Z,99781.92
2023-04-19T05:31:33.184Z,99776.58
2023-04-19T05:32:40.089Z,99785.45
2023-04-19T05:33:44.172Z,99783.06
2023-04-19T05:34:46.935Z,99788.41
2023-04-19T05:35:51.118Z,99792.06
2023-04-19T05:36:53.863Z,99784.20
2023-04-19T05:37:56.478Z,99783.34
2023-04-19T05:38:59.968Z,99785.17
2023-04-19T05:40:04.423Z,99785.89
2023-04-19T05:41:07.319Z,99786.69
2023-04-19T05:42:10.098Z,99791.30
2023-04-19T05:43:12.685Z,99785.53
2023-04-19T05:44:15.889Z,99783.54
2023-04-19T05:45:18.233Z,99783.38
2023-04-19T05:46:20.339Z,99778.88
2023-04-19T05:47:22.715Z,99781.71
2023-04-19T05:48:42.315Z,99784.39
2023-04-19T05:50:59.175Z,99786.88
2023-04-19T05:52:03.345Z,99796.52
2023-04-19T05:53:10.461Z,99795.52
2023-04-19T05:54:12.836Z,99786.80
2023-04-19T05:55:15.861Z,99792.15
2023-04-19T05:56:19.859Z,99788.78
2023-04-19T05:57:22.154Z,99786.11
2023-04-19T05:58:26.415Z,99781.73
2023-04-19T05:59:29.567Z,99803.14
2023-04-19T06:00:31.835Z,99799.78
2023-04-19T06:01:36.127Z,99786.53
2023-04-19T06:02:38.519Z,99797.39
2023-04-19T06:03:41.634Z,99796.70
2023-04-19T06:04:45.061Z,99786.13
2023-04-19T06:05:47.913Z,99785.61
2023-04-19T06:06:51.118Z,99783.22
2023-04-19T06:07:59.301Z,99779.83
2023-04-19T06:08:57.437Z,99784.48
2023-04-19T06:10:00.850Z,99782.95
2023-04-19T06:11:11.834Z,99775.09
2023-04-19T06:12:09.355Z,99776.91
2023-04-19T06:13:11.601Z,99783.39
2023-04-19T06:14:14.302Z,99779.87
2023-04-19T06:15:17.918Z,99783.69
2023-04-19T06:16:21.087Z,99783.00
2023-04-19T06:17:23.625Z,99778.63
2023-04-19T06:18:26.289Z,99773.41
2023-04-19T06:19:28.342Z,99772.59
2023-04-19T06:20:30.736Z,99771.74
2023-04-19T06:21:33.400Z,99773.56
2023-04-19T06:22:47.724Z,99771.87
2023-04-19T06:23:49.813Z,99774.41
2023-04-19T06:24:51.867Z,99772.72
2023-04-19T06:25:53.948Z,99777.22
2023-04-19T06:26:57.254Z,99774.55
2023-04-19T06:29:01.871Z,99771.05
2023-04-19T06:31:10.790Z,99772.87
2023-04-19T06:35:19.721Z,99774.02
2023-04-19T06:36:21.789Z,99763.32
2023-04-19T06:37:23.873Z,99768.66
2023-04-19T06:38:25.911Z,99764.30
2023-04-19T06:39:27.958Z,99764.30
2023-04-19T06:40:30.136Z,99762.59
2023-04-19T06:41:32.407Z,99770.49
2023-04-19T06:42:35.101Z,99766.97
2023-04-19T06:43:37.293Z,99771.34
2023-04-19T06:44:39.431Z,99775.84
2023-04-19T06:45:42.249Z,99767.81
2023-04-19T06:46:45.655Z,99767.94
2023-04-19T06:56:06.081Z,99761.49
2023-04-19T06:57:08.112Z,99764.98
2023-04-19T06:58:10.263Z,99766.68
2023-04-19T07:00:16.462Z,99759.22
2023-04-19T07:01:19.088Z,99770.73
2023-04-19T07:02:21.409Z,99767.93
2023-04-19T07:03:24.218Z,99760.59
2023-04-19T07:04:27.145Z,99764.97
2023-04-19T07:05:31.243Z,99763.96
2023-04-19T07:06:36.646Z,99764.68
2023-04-19T07:07:38.866Z,99759.17
2023-04-19T07:08:49.880Z,99760.71
2023-04-19T07:09:45.226Z,99767.75
2023-04-19T07:10:47.665Z,99759.45
2023-04-19T07:11:49.811Z,99765.48
2023-04-19T07:12:52.634Z,99762.52
2023-04-19T07:13:55.030Z,99756.58
2023-04-19T07:14:57.628Z,99755.16
2023-04-19T07:16:03.368Z,99760.73
2023-04-19T07:17:05.554Z,99758.16
2023-04-19T07:18:08.225Z,99760.63
2023-04-19T07:19:10.958Z,99761.44
2023-04-19T07:20:13.397Z,99763.09
2023-04-19T07:21:15.441Z,99754.85
2023-04-19T07:22:17.514Z,99757.14
2023-04-19T07:23:19.989Z,99752.55
2023-04-19T07:24:22.131Z,99756.69
2023-04-19T07:25:24.790Z,99754.63
2023-04-19T07:26:27.091Z,99760.56
2023-04-19T07:27:29.516Z,99757.49
2023-04-19T07:28:31.717Z,99751.03
2023-04-19T07:29:37.173Z,99759.67
2023-04-19T07:30:39.288Z,99761.27
2023-04-19T07:31:41.394Z,99758.33
2023-04-19T07:32:43.826Z,99757.35
2023-04-19T07:33:47.306Z,99758.09
2023-04-19T07:34:49.498Z,99740.02
2023-04-19T07:35:51.539Z,99755.31
2023-04-19T07:36:53.874Z,99752.52
2023-04-19T07:37:57.065Z,99758.77
2023-04-19T07:38:59.599Z,99752.39
2023-04-19T07:40:02.833Z,99755.95
2023-04-19T07:41:05.791Z,99751.30
2023-04-19T07:42:08.074Z,99754.84
2023-04-19T07:43:10.142Z,99752.88
2023-04-19T07:44:12.290Z,99754.55
2023-04-19T07:45:15.758Z,99752.56
2023-04-19T07:46:18.472Z,99746.16
2023-04-19T07:47:21.250Z,99745.17
2023-04-19T07:48:23.882Z,99742.30
2023-04-19T07:49:26.637Z,99740.45
2023-04-19T07:50:29.610Z,99743.31
2023-04-19T07:51:31.783Z,99742.45
2023-04-19T07:52:33.956Z,99741.81
2023-04-19T07:53:36.464Z,99744.30
2023-04-19T07:54:38.630Z,99743.63
2023-04-19T07:55:40.725Z,99738.41
2023-04-19T07:56:43.418Z,99741.08
2023-04-19T07:57:45.595Z,99741.05
2023-04-19T07:58:56.540Z,99740.17
2023-04-19T07:59:51.670Z,99741.64
2023-04-19T08:00:53.934Z,99743.30
2023-04-19T08:01:56.584Z,99737.69
2023-04-19T08:02:58.874Z,99742.87
2023-04-19T08:04:02.053Z,99738.33
2023-04-19T08:05:06.220Z,99737.73
2023-04-19T08:06:08.889Z,99731.29
2023-04-19T08:07:11.066Z,99737.92
2023-04-19T08:08:13.216Z,99741.90
2023-04-19T08:09:15.583Z,99738.59
2023-04-19T08:10:22.231Z,99732.41
2023-04-19T08:11:24.563Z,99724.20
2023-04-19T08:12:35.109Z,99733.83
2023-04-19T08:13:32.286Z,99724.72
2023-04-19T08:14:43.827Z,99729.94
2023-04-19T08:17:50.793Z,99722.05
2023-04-19T08:18:53.107Z,99716.27
2023-04-19T08:20:06.523Z,99721.51
2023-04-19T08:21:12.796Z,99732.11
2023-04-19T08:22:17.444Z,99730.05
2023-04-19T08:23:29.511Z,99717.22
2023-04-19T08:24:27.895Z,99722.41
2023-04-19T08:25:32.763Z,99721.03
2023-04-19T08:26:39.264Z,99724.38
2023-04-19T08:27:43.951Z,99716.53
2023-04-19T08:28:45.891Z,99730.40
2023-04-19T08:29:48.486Z,99714.06
2023-04-19T08:30:50.821Z,99720.20
2023-04-19T08:31:52.889Z,99719.23
2023-04-19T08:32:57.317Z,99720.50
2023-04-19T08:33:59.995Z,99721.17
2023-04-19T08:35:02.067Z,99719.95
2023-04-19T08:36:06.311Z,99712.69
2023-04-19T08:37:08.798Z,99712.69
2023-04-19T08:38:11.257Z,99711.84
2023-04-19T08:39:24.614Z,99719.11
2023-04-19T08:40:19.729Z,99719.74
2023-04-19T08:41:22.700Z,99707.91
2023-04-19T08:42:35.434Z,99719.56
2023-04-19T08:43:30.809Z,99719.36
2023-04-19T08:45:49.433Z,99712.63
2023-04-19T08:46:53.497Z,99716.41
2023-04-19T08:48:01.528Z,99711.63
2023-04-19T08:49:10.890Z,99725.79
2023-04-19T08:50:31.292Z,99710.23
2023-04-19T08:51:22.685Z,99720.00
2023-04-19T08:52:29.986Z,99728.11
2023-04-19T08:53:36.265Z,99728.11
2023-04-19T08:54:44.355Z,99726.25
2023-04-19T08:56:08.761Z,99731.66
2023-04-19T08:56:59.457Z,99732.88
2023-04-19T08:58:05.775Z,99730.18
2023-04-19T08:59:17.997Z,99717.88
2023-04-19T09:00:14.696Z,99734.31
2023-04-19T09:01:30.404Z,99739.72
2023-04-19T09:02:21.609Z,99723.67
2023-04-19T09:03:34.685Z,99729.28
2023-04-19T09:04:38.011Z,99717.63
2023-04-19T09:05:41.117Z,99717.16
2023-04-19T09:06:43.980Z,99715.48
2023-04-19T09:07:49.663Z,99714.66
2023-04-19T09:08:52.411Z,99719.23
2023-04-19T09:10:10.414Z,99715.69
2023-04-19T09:11:13.259Z,99716.70
2023-04-19T09:12:17.159Z,99732.55
2023-04-19T09:13:23.692Z,99721.55
2023-04-19T09:14:27.644Z,99711.37
2023-04-19T09:15:38.787Z,99703.27
2023-04-19T09:16:42.943Z,99712.39
2023-04-19T09:17:48.424Z,99718.47
2023-04-19T09:19:22.446Z,99719.11
2023-04-19T09:20:00.781Z,99711.84
2023-04-19T09:21:06.019Z,99705.59
2023-04-19T09:22:12.877Z,99709.31
2023-04-19T09:23:16.739Z,99711.17
2023-04-19T09:25:04.412Z,99709.52
2023-04-19T09:26:19.150Z,99718.01
2023-04-19T09:27:00.776Z,99714.66
2023-04-19T09:28:16.297Z,99725.48
2023-04-19T09:29:21.942Z,99719.23
2023-04-19T09:30:32.334Z,99709.00
2023-04-19T09:31:50.784Z,99711.24
2023-04-19T09:32:49.684Z,99717.03
2023-04-19T09:33:58.054Z,99702.41
2023-04-19T09:35:00.196Z,99724.62
2023-04-19T09:36:03.595Z,99717.64
2023-04-19T09:37:17.836Z,99710.92
2023-04-19T09:38:17.034Z,99721.46
2023-04-19T09:39:30.403Z,99707.05
2023-04-19T09:40:32.795Z,99725.49
2023-04-19T09:41:36.342Z,99720.02
2023-04-19T09:43:06.930Z,99719.72
2023-04-19T09:44:08.952Z,99718.57
2023-04-19T09:46:10.669Z,99711.25
2023-04-19T09:47:26.884Z,99702.30
2023-04-19T09:48:29.061Z,99713.27
2023-04-19T09:51:02.344Z,99725.12
2023-04-19T09:52:05.808Z,99707.43
2023-04-19T09:53:08.576Z,99725.28
2023-04-19T09:54:20.722Z,99719.04
2023-04-19T09:55:30.236Z,99730.05
2023-04-19T09:56:38.564Z,99725.66
2023-04-19T09:57:49.828Z,99713.37
2023-04-19T09:59:04.942Z,99725.21
2023-04-19T10:00:06.994Z,99719.34
2023-04-19T10:01:15.486Z,99710.96
2023-04-19T10:02:16.946Z,99717.94
2023-04-19T10:03:21.168Z,99707.71
2023-04-19T10:04:44.172Z,99709.09
2023-04-19T10:05:40.984Z,99715.70
2023-04-19T10:07:07.067Z,99718.12
2023-04-19T10:07:58.558Z,99716.99
2023-04-19T10:09:01.466Z,99701.53
2023-04-19T10:10:18.701Z,99720.98
2023-04-19T10:13:59.634Z,99713.81
2023-04-19T10:15:01.787Z,99715.02
2023-04-19T10:16:18.106Z,99708.78
2023-04-19T10:17:13.804Z,99711.87
2023-04-19T10:18:18.540Z,99716.59
2023-04-19T10:19:22.627Z,99713.24
2023-04-19T10:21:46.114Z,99712.88
2023-04-19T10:22:50.309Z,99710.69
2023-04-19T10:23:53.344Z,99712.73
2023-04-19T10:25:15.834Z,99707.50
2023-04-19T10:26:19.561Z,99708.54
2023-04-19T10:27:25.682Z,99713.09
2023-04-19T10:28:30.370Z,99718.48
2023-04-19T10:30:01.839Z,99714.94
2023-04-19T10:31:05.692Z,99713.09
2023-04-19T10:32:14.570Z,99713.94
2023-04-19T10:33:27.506Z,99710.39
2023-04-19T10:34:39.621Z,99708.05
2023-04-19T10:35:44.098Z,99711.95
2023-04-19T10:36:48.605Z,99711.30
2023-04-19T10:38:13.435Z,99702.53
2023-04-19T10:39:40.587Z,99714.52
2023-04-19T10:41:00.282Z,99716.36
2023-04-19T10:42:02.456Z,99722.95
2023-04-19T10:43:15.223Z,99716.91
2023-04-19T10:44:18.602Z,99721.45
2023-04-19T10:45:35.962Z,99730.73
2023-04-19T10:46:40.972Z,99722.36
2023-04-19T10:47:46.108Z,99737.38
2023-04-19T10:48:56.375Z,99731.85
2023-04-19T10:51:19.757Z,99744.52
2023-04-19T10:52:32.951Z,99750.11
2023-04-19T10:54:12.986Z,99731.61
2023-04-19T10:55:16.505Z,99754.53
2023-04-19T10:56:35.052Z,99740.08
2023-04-19T10:58:06.384Z,99743.30
2023-04-19T10:59:16.283Z,99756.11
2023-04-19T11:00:24.122Z,99744.65
2023-04-19T11:04:33.231Z,99740.95
2023-04-19T11:05:50.604Z,99734.63
2023-04-19T11:07:06.917Z,99750.09
2023-04-19T11:08:09.606Z,99751.59
2023-04-19T11:09:11.795Z,99746.06
2023-04-19T11:11:34.803Z,99753.27
2023-04-19T11:12:39.891Z,99750.63
2023-04-19T11:13:43.487Z,99742.55
2023-04-19T11:14:48.591Z,99741.55
2023-04-19T11:15:50.953Z,99739.86
2023-04-19T11:16:54.230Z,99747.94
2023-04-19T11:18:11.288Z,99736.52
2023-04-19T11:19:02.821Z,99741.89
2023-04-19T11:20:07.288Z,99746.43
2023-04-19T11:22:41.172Z,99733.45
2023-04-19T11:25:39.015Z,99730.06
2023-04-19T11:26:48.139Z,99733.50
2023-04-19T11:27:55.340Z,99744.27
2023-04-19T11:28:57.609Z,99745.27
2023-04-19T11:30:08.794Z,99742.58
2023-04-19T11:31:11.638Z,99747.12
2023-04-19T11:32:14.190Z,99758.06
2023-04-19T11:33:19.407Z,99741.23
2023-04-19T11:34:23.298Z,99751.33
2023-04-19T11:35:26.993Z,99756.21
2023-04-19T11:36:31.274Z,99735.72
2023-04-19T11:37:36.558Z,99737.75
2023-04-19T11:38:38.982Z,99739.75
2023-04-19T11:39:46.332Z,99744.47
2023-04-19T11:40:52.728Z,99756.23
2023-04-19T11:41:54.836Z,99744.80
2023-04-19T11:44:14.452Z,99733.36
2023-04-19T11:45:34.460Z,99744.83
2023-04-19T11:46:35.549Z,99756.95
2023-04-19T11:47:48.958Z,99757.11
2023-04-19T11:48:53.265Z,99737.61
2023-04-19T11:49:55.743Z,99747.17
2023-04-19T11:50:59.379Z,99753.73
2023-04-19T11:52:05.592Z,99751.20
2023-04-19T11:53:21.899Z,99756.09
2023-04-19T11:54:24.224Z,99755.41
2023-04-19T11:55:26.329Z,99737.94
2023-04-19T11:56:28.736Z,99744.50
2023-04-19T11:58:57.884Z,99738.45
2023-04-19T12:00:10.539Z,99741.30
2023-04-19T12:02:42.412Z,99740.64
2023-04-19T12:05:09.768Z,99758.09
2023-04-19T12:06:19.377Z,99757.43
2023-04-19T12:07:21.511Z,99767.19
2023-04-19T12:09:43.549Z,99760.97
2023-04-19T12:10:56.727Z,99756.75
2023-04-19T12:11:59.392Z,99754.22
2023-04-19T12:13:18.752Z,99766.32
2023-04-19T12:14:23.103Z,99762.94
2023-04-19T12:15:42.569Z,99758.73
2023-04-19T12:16:45.552Z,99766.31
2023-04-19T12:19:15.734Z,99753.55
2023-04-19T12:20:36.230Z,99757.52
2023-04-19T12:21:40.775Z,99762.22
2023-04-19T12:22:44.340Z,99753.61
2023-04-19T12:23:46.525Z,99769.91
2023-04-19T12:24:51.194Z,99768.53
2023-04-19T12:25:54.182Z,99758.11
2023-04-19T12:26:57.833Z,99763.66
2023-04-19T12:29:15.088Z,99768.20
2023-04-19T12:30:19.381Z,99776.21
2023-04-19T12:31:21.629Z,99766.31
2023-04-19T12:32:24.298Z,99764.48
2023-04-19T12:33:26.939Z,99769.18
2023-04-19T12:34:35.379Z,99762.27
2023-04-19T12:35:37.621Z,99755.23
2023-04-19T12:36:39.922Z,99766.11
2023-04-19T12:37:42.189Z,99757.56
2023-04-19T12:38:44.347Z,99758.56
2023-04-19T12:39:46.920Z,99757.89
2023-04-19T12:40:50.252Z,99770.46
2023-04-19T12:42:01.689Z,99773.14
2023-04-19T12:43:05.733Z,99770.46
2023-04-19T12:44:08.567Z,99780.35
2023-04-19T12:45:12.108Z,99774.98
2023-04-19T12:46:14.370Z,99775.97
2023-04-19T12:47:17.676Z,99779.50
2023-04-19T12:48:19.816Z,99782.19
2023-04-19T12:49:22.505Z,99781.52
2023-04-19T12:50:24.763Z,99780.00
2023-04-19T12:51:28.472Z,99766.75
2023-04-19T12:52:30.694Z,99778.30
2023-04-19T12:53:33.256Z,99771.27
2023-04-19T12:54:36.416Z,99776.64
2023-04-19T12:55:38.999Z,99769.58
2023-04-19T12:56:41.813Z,99776.11
2023-04-19T12:57:44.442Z,99780.81
2023-04-19T12:58:47.011Z,99793.52
2023-04-19T12:59:49.901Z,99794.69
2023-04-19T13:00:52.310Z,99780.59
2023-04-19T13:01:54.467Z,99796.16
2023-04-19T13:02:57.277Z,99780.41
2023-04-19T13:04:00.334Z,99796.66
2023-04-19T13:05:03.150Z,99796.97
2023-04-19T13:06:07.949Z,99806.17
2023-04-19T13:07:10.220Z,99781.36
2023-04-19T13:08:12.531Z,99783.36
2023-04-19T13:09:15.400Z,99800.63
2023-04-19T13:10:27.993Z,99781.00
2023-04-19T13:11:30.236Z,99794.55
2023-04-19T13:12:33.102Z,99796.55
2023-04-19T13:13:35.252Z,99788.51
2023-04-19T13:14:37.463Z,99786.98
2023-04-19T13:15:39.489Z,99788.14
2023-04-19T13:16:41.972Z,99794.50
2023-04-19T13:17:44.085Z,99792.83
2023-04-19T13:18:47.176Z,99791.14
2023-04-19T13:19:50.665Z,99799.33
2023-04-19T13:20:53.057Z,99789.62
2023-04-19T13:21:55.467Z,99787.92